Time;durP1;ratioP1;P1;durP2;ratioP2;P2;SDS_P1;SDS_P2;PMS_P1;PMS_P2;Temp;Humidity;BMP_temperature;BMP_pressure;BME280_temperature;BME280_humidity;BME280_pressure;Samples;Min_cycle;Max_cycle;Signal;HPM_P1;HPM_P2
2021/03/02 00:01:36;;;;;;;;;;;;;;;;;;5082396;28;1897;-69
2021/03/02 00:04:03;;;;;;;;;;;;;;;;;;5082393;28;775;-67
2021/03/02 00:06:29;;;;;;;;;;;;;;;;;;5100712;28;1456;-69
2021/03/02 00:08:55;;;;;;;;;;;;;;;;;;5083115;28;1219;-67
2021/03/02 00:11:20;;;;;;;;;;;;;;;;;;5101037;28;834;-68
2021/03/02 00:13:45;;;;;;;;;;;;;;;;;;5083006;28;1398;-67
2021/03/02 00:16:11;;;;;;;;;;;;;;;;;;5066204;28;1385;-69
2021/03/02 00:18:41;;;;;;;;;;;;;;;;;;5100980;28;951;-68
2021/03/02 00:21:11;;;;;;;;;;;;;;;;;;5099370;28;1957;-66
2021/03/02 00:23:41;;;;;;;;;;;;;;;;;;5100917;28;932;-68
2021/03/02 00:26:07;;;;;;;;;;;;;;;;;;5101100;28;1475;-67
2021/03/02 00:28:33;;;;;;;;;;;;;;;;;;5101180;28;805;-68
2021/03/02 00:30:59;;;;;;;;;;;;;;;;;;5101099;28;880;-68
2021/03/02 00:33:25;;;;;;;;;;;;;;;;;;5099566;28;1292;-69
2021/03/02 00:35:51;;;;;;;;;;;;;;;;;;5100908;28;1352;-68
2021/03/02 00:38:16;;;;;;;;;;;;;;;;;;5099771;28;930;-68
2021/03/02 00:40:41;;;;;;;;;;;;;;;;;;5099768;28;1897;-68
2021/03/02 00:43:06;;;;;;;;;;;;;;;;;;5100613;28;987;-66
2021/03/02 00:45:32;;;;;;;;;;;;;;;;;;5100692;28;1309;-69
2021/03/02 00:47:58;;;;;;;;;;;;;;;;;;5100818;28;992;-69
2021/03/02 00:50:24;;;;;;;;;;;;;;;;;;5100947;28;808;-68
2021/03/02 00:52:49;;;;;;;;;;;;;;;;;;5100632;28;880;-68
2021/03/02 00:55:14;;;;;;;;;;;;;;;;;;5100602;28;1293;-68
2021/03/02 00:57:40;;;;;;;;;;;;;;;;;;5099862;28;932;-68
2021/03/02 01:00:06;;;;;;;;;;;;;;;;;;5100318;28;1894;-67
2021/03/02 01:02:31;;;;;;;;;;;;;;;;;;5097319;28;870;-66
2021/03/02 01:04:57;;;;;;;;;;;;;;;;;;5097517;28;920;-67
2021/03/02 01:07:22;;;;;;;;;;;;;;;;;;5096021;28;1474;-67
2021/03/02 01:09:47;;;;;;;;;;;;;;;;;;5097376;28;916;-67
2021/03/02 01:12:12;;;;;;;;;;;;;;;;;;5097488;28;801;-69
2021/03/02 01:14:38;;;;;;;;;;;;;;;;;;5097419;28;1034;-69
2021/03/02 01:17:03;;;;;;;;;;;;;;;;;;5097411;28;1289;-70
2021/03/02 01:19:28;;;;;;;;;;;;;;;;;;5097176;28;961;-68
2021/03/02 01:21:54;;;;;;;;;;;;;;;;;;5097292;28;1893;-68
2021/03/02 01:24:19;;;;;;;;;;;;;;;;;;5096608;28;1242;-69
2021/03/02 01:26:44;;;;;;;;;;;;;;;;;;5097278;28;1381;-69
2021/03/02 01:29:10;;;;;;;;;;;;;;;;;;5096288;28;939;-67
2021/03/02 01:31:35;;;;;;;;;;;;;;;;;;5095990;28;829;-69
2021/03/02 01:34:00;;;;;;;;;;;;;;;;;;5096904;28;868;-67
2021/03/02 01:36:25;;;;;;;;;;;;;;;;;;5095366;28;1377;-68
2021/03/02 01:38:51;;;;;;;;;;;;;;;;;;5095552;28;928;-67
2021/03/02 01:41:16;;;;;;;;;;;;;;;;;;5095456;28;1897;-68
2021/03/02 01:43:42;;;;;;;;;;;;;;;;;;5096725;28;959;-67
2021/03/02 01:46:07;;;;;;;;;;;;;;;;;;5096533;28;1310;-67
2021/03/02 01:48:33;;;;;;;;;;;;;;;;;;5096757;28;893;-67
2021/03/02 01:50:59;;;;;;;;;;;;;;;;;;5096702;28;845;-66
2021/03/02 01:53:24;;;;;;;;;;;;;;;;;;5096344;28;1027;-68
2021/03/02 01:55:49;;;;;;;;;;;;;;;;;;5096556;28;1416;-67
2021/03/02 01:58:14;;;;;;;;;;;;;;;;;;5095114;28;1589;-67
2021/03/02 02:00:40;;;;;;;;;;;;;;;;;;5096440;28;2507;-69
2021/03/02 02:03:24;;;;;;;;;;;;;;;;;;5095023;28;1328;-68
2021/03/02 02:06:01;;;;;;;;;;;;;;;;;;5094673;28;1396;-67
2021/03/02 02:08:32;;;;;;;;;;;;;;;;;;5096609;28;892;-66
2021/03/02 02:11:03;;;;;;;;;;;;;;;;;;5096362;28;817;-69
2021/03/02 02:13:33;;;;;;;;;;;;;;;;;;5094649;28;885;-67
2021/03/02 02:16:01;;;;;;;;;;;;;;;;;;5095833;28;1246;-68
2021/03/02 02:18:28;;;;;;;;;;;;;;;;;;5096024;28;945;-67
2021/03/02 02:20:54;;;;;;;;;;;;;;;;;;5096021;28;1968;-69
2021/03/02 02:23:28;;;;;;;;;;;;;;;;;;5094461;28;920;-68
2021/03/02 02:26:02;;;;;;;;;;;;;;;;;;5095870;28;1349;-68
2021/03/02 02:28:28;;;;;;;;;;;;;;;;;;5094723;28;978;-67
2021/03/02 02:30:57;;;;;;;;;;;;;;;;;;5095864;28;1019;-66
2021/03/02 02:33:25;;;;;;;;;;;;;;;;;;5094370;28;1392;-69
2021/03/02 02:35:52;;;;;;;;;;;;;;;;;;5095825;28;1447;-67
2021/03/02 02:38:19;;;;;;;;;;;;;;;;;;5077330;28;1442;-67
2021/03/02 02:40:44;;;;;;;;;;;;;;;;;;5094413;28;1897;-67
2021/03/02 02:43:11;;;;;;;;;;;;;;;;;;5094253;28;916;-68
2021/03/02 02:45:37;;;;;;;;;;;;;;;;;;5095517;28;1353;-68
2021/03/02 02:48:02;;;;;;;;;;;;;;;;;;5095556;28;884;-67
2021/03/02 02:50:28;;;;;;;;;;;;;;;;;;5094030;28;1281;-68
2021/03/02 02:52:53;;;;;;;;;;;;;;;;;;5095468;28;862;-66
2021/03/02 02:55:19;;;;;;;;;;;;;;;;;;5095560;28;1392;-67
2021/03/02 02:57:49;;;;;;;;;;;;;;;;;;5095280;28;872;-66
2021/03/02 03:00:16;;;;;;;;;;;;;;;;;;5093906;28;1902;-67
2021/03/02 03:02:43;;;;;;;;;;;;;;;;;;5095357;28;901;-69
2021/03/02 03:05:12;;;;;;;;;;;;;;;;;;5093934;28;1345;-67
2021/03/02 03:07:40;;;;;;;;;;;;;;;;;;5094399;28;961;-68
2021/03/02 03:10:05;;;;;;;;;;;;;;;;;;5095119;28;904;-69
2021/03/02 03:12:33;;;;;;;;;;;;;;;;;;5094958;28;892;-68
2021/03/02 03:15:01;;;;;;;;;;;;;;;;;;5076926;28;1349;-70
2021/03/02 03:17:30;;;;;;;;;;;;;;;;;;5093726;28;1392;-68
2021/03/02 03:19:56;;;;;;;;;;;;;;;;;;5093910;28;1948;-68
2021/03/02 03:22:22;;;;;;;;;;;;;;;;;;5093418;28;1375;-68
2021/03/02 03:24:48;;;;;;;;;;;;;;;;;;5094101;28;866;-68
2021/03/02 03:27:14;;;;;;;;;;;;;;;;;;5093593;28;1420;-68
2021/03/02 03:29:40;;;;;;;;;;;;;;;;;;5095216;28;880;-67
2021/03/02 03:32:06;;;;;;;;;;;;;;;;;;5094857;28;813;-69
2021/03/02 03:34:32;;;;;;;;;;;;;;;;;;5094615;28;946;-68
2021/03/02 03:36:57;;;;;;;;;;;;;;;;;;5095036;28;1376;-68
2021/03/02 03:39:22;;;;;;;;;;;;;;;;;;5093812;28;952;-68
2021/03/02 03:41:49;;;;;;;;;;;;;;;;;;5094677;28;1905;-66
2021/03/02 03:44:14;;;;;;;;;;;;;;;;;;5076833;28;869;-68
2021/03/02 03:46:39;;;;;;;;;;;;;;;;;;5094405;28;1416;-68
2021/03/02 03:49:05;;;;;;;;;;;;;;;;;;5093605;28;940;-66
2021/03/02 03:51:31;;;;;;;;;;;;;;;;;;5094754;28;943;-68
2021/03/02 03:53:57;;;;;;;;;;;;;;;;;;5093074;28;1353;-68
2021/03/02 03:56:22;;;;;;;;;;;;;;;;;;5093452;28;1352;-66
2021/03/02 03:58:49;;;;;;;;;;;;;;;;;;5094758;28;908;-67
2021/03/02 04:01:14;;;;;;;;;;;;;;;;;;5093200;28;2391;-68
2021/03/02 04:03:40;;;;;;;;;;;;;;;;;;5092951;28;1187;-69
2021/03/02 04:06:06;;;;;;;;;;;;;;;;;;5094389;28;1305;-68
2021/03/02 04:08:32;;;;;;;;;;;;;;;;;;5094509;28;888;-68
2021/03/02 04:11:01;;;;;;;;;;;;;;;;;;5093437;28;1206;-67
2021/03/02 04:13:27;;;;;;;;;;;;;;;;;;5093020;28;1262;-68
2021/03/02 04:15:52;;;;;;;;;;;;;;;;;;5092859;28;1349;-67
2021/03/02 04:18:18;;;;;;;;;;;;;;;;;;5094402;28;995;-69
2021/03/02 04:20:44;;;;;;;;;;;;;;;;;;5093113;28;1961;-67
2021/03/02 04:23:10;;;;;;;;;;;;;;;;;;5094332;28;829;-69
2021/03/02 04:25:35;;;;;;;;;;;;;;;;;;5094272;28;1282;-69
2021/03/02 04:28:02;;;;;;;;;;;;;;;;;;5092858;28;1267;-67
2021/03/02 04:30:27;;;;;;;;;;;;;;;;;;5094284;28;920;-67
2021/03/02 04:32:52;;;;;;;;;;;;;;;;;;5094082;28;960;-67
2021/03/02 04:35:18;;;;;;;;;;;;;;;;;;5095306;28;1257;-67
2021/03/02 04:37:43;;;;;;;;;;;;;;;;;;5096832;28;904;-68
2021/03/02 04:40:09;;;;;;;;;;;;;;;;;;5097946;28;1897;-69
2021/03/02 04:42:34;;;;;;;;;;;;;;;;;;5096361;28;1182;-69
2021/03/02 04:45:00;;;;;;;;;;;;;;;;;;5098125;28;870;-67
2021/03/02 04:47:25;;;;;;;;;;;;;;;;;;5097722;28;1392;-66
2021/03/02 04:49:50;;;;;;;;;;;;;;;;;;5098112;28;810;-67
2021/03/02 04:52:18;;;;;;;;;;;;;;;;;;5096617;28;1324;-69
2021/03/02 04:54:44;;;;;;;;;;;;;;;;;;5097481;28;915;-67
2021/03/02 04:57:09;;;;;;;;;;;;;;;;;;5096412;28;1357;-67
2021/03/02 04:59:34;;;;;;;;;;;;;;;;;;5096790;28;2105;-67
2021/03/02 05:02:00;;;;;;;;;;;;;;;;;;5096203;28;1898;-68
2021/03/02 05:04:25;;;;;;;;;;;;;;;;;;5097599;28;893;-67
2021/03/02 05:06:50;;;;;;;;;;;;;;;;;;5096262;28;1451;-69
2021/03/02 05:09:16;;;;;;;;;;;;;;;;;;5097464;28;828;-67
2021/03/02 05:11:41;;;;;;;;;;;;;;;;;;5096240;28;1083;-69
2021/03/02 05:14:06;;;;;;;;;;;;;;;;;;5097263;28;899;-66
2021/03/02 05:16:31;;;;;;;;;;;;;;;;;;5095910;28;1435;-66
2021/03/02 05:18:57;;;;;;;;;;;;;;;;;;5097278;28;1061;-67
2021/03/02 05:21:22;;;;;;;;;;;;;;;;;;5097203;28;1955;-67
2021/03/02 05:23:47;;;;;;;;;;;;;;;;;;5096866;28;833;-66
2021/03/02 05:26:12;;;;;;;;;;;;;;;;;;5096913;28;1349;-68
2021/03/02 05:28:37;;;;;;;;;;;;;;;;;;5096138;28;991;-67
2021/03/02 05:31:03;;;;;;;;;;;;;;;;;;5097089;28;987;-68
2021/03/02 05:33:28;;;;;;;;;;;;;;;;;;5097032;28;923;-66
2021/03/02 05:35:54;;;;;;;;;;;;;;;;;;5096987;28;1364;-68
2021/03/02 05:38:19;;;;;;;;;;;;;;;;;;5096656;28;833;-69
2021/03/02 05:40:44;;;;;;;;;;;;;;;;;;5096951;28;1897;-66
2021/03/02 05:43:10;;;;;;;;;;;;;;;;;;5095335;28;860;-68
2021/03/02 05:45:35;;;;;;;;;;;;;;;;;;5096688;28;1310;-69
2021/03/02 05:48:05;;;;;;;;;;;;;;;;;;5094448;28;2287;-68
2021/03/02 05:50:30;;;;;;;;;;;;;;;;;;5096840;28;802;-67
2021/03/02 05:52:56;;;;;;;;;;;;;;;;;;5096226;28;916;-67
2021/03/02 05:55:21;;;;;;;;;;;;;;;;;;5096504;28;1329;-66
2021/03/02 05:57:47;;;;;;;;;;;;;;;;;;5096563;28;806;-67
2021/03/02 06:00:13;;;;;;;;;;;;;;;;;;5096226;28;1893;-68
2021/03/02 06:02:38;;;;;;;;;;;;;;;;;;5094859;28;1456;-66
2021/03/02 06:05:03;;;;;;;;;;;;;;;;;;5095285;28;1360;-66
2021/03/02 06:07:29;;;;;;;;;;;;;;;;;;5095094;28;1184;-66
2021/03/02 06:09:54;;;;;;;;;;;;;;;;;;5096527;28;872;-69
2021/03/02 06:12:19;;;;;;;;;;;;;;;;;;5094794;28;1565;-67
2021/03/02 06:14:44;;;;;;;;;;;;;;;;;;5094947;28;1305;-66
2021/03/02 06:17:10;;;;;;;;;;;;;;;;;;5094751;28;1416;-67
2021/03/02 06:19:35;;;;;;;;;;;;;;;;;;5095010;28;944;-66
2021/03/02 06:22:00;;;;;;;;;;;;;;;;;;5096131;28;1894;-67
2021/03/02 06:24:33;;;;;;;;;;;;;;;;;;5095834;28;1205;-67
2021/03/02 06:27:05;;;;;;;;;;;;;;;;;;5095919;28;1329;-68
2021/03/02 06:29:31;;;;;;;;;;;;;;;;;;5095910;28;1226;-67
2021/03/02 06:31:56;;;;;;;;;;;;;;;;;;5095556;28;1051;-67
2021/03/02 06:34:21;;;;;;;;;;;;;;;;;;5095906;28;821;-68
2021/03/02 06:36:52;;;;;;;;;;;;;;;;;;5095699;28;1349;-67
2021/03/02 06:39:31;;;;;;;;;;;;;;;;;;5094553;28;1397;-68
2021/03/02 06:42:10;;;;;;;;;;;;;;;;;;5094050;28;1894;-68
2021/03/02 06:44:35;;;;;;;;;;;;;;;;;;5094456;28;845;-67
2021/03/02 06:47:01;;;;;;;;;;;;;;;;;;5095435;28;1325;-68
2021/03/02 06:49:37;;;;;;;;;;;;;;;;;;5095848;28;832;-68
2021/03/02 06:52:10;;;;;;;;;;;;;;;;;;5095146;28;899;-68
2021/03/02 06:54:35;;;;;;;;;;;;;;;;;;5095473;28;829;-69
2021/03/02 06:57:03;;;;;;;;;;;;;;;;;;5095423;28;1290;-68
2021/03/02 06:59:29;;;;;;;;;;;;;;;;;;5095370;28;881;-68
2021/03/02 07:01:54;;;;;;;;;;;;;;;;;;5095049;28;1949;-69
2021/03/02 07:04:20;;;;;;;;;;;;;;;;;;5095645;28;1170;-67
2021/03/02 07:06:47;;;;;;;;;;;;;;;;;;5095277;28;1443;-69
2021/03/02 07:09:15;;;;;;;;;;;;;;;;;;5095105;28;793;-70
2021/03/02 07:11:41;;;;;;;;;;;;;;;;;;5094105;28;967;-69
2021/03/02 07:14:07;;;;;;;;;;;;;;;;;;5094909;28;940;-72
2021/03/02 07:16:38;;;;;;;;;;;;;;;;;;5094128;28;1489;-67
2021/03/02 07:19:04;;;;;;;;;;;;;;;;;;5093831;28;953;-70
2021/03/02 07:21:33;;;;;;;;;;;;;;;;;;5094809;28;1898;-68
2021/03/02 07:23:59;;;;;;;;;;;;;;;;;;5093650;28;1209;-65
2021/03/02 07:26:26;;;;;;;;;;;;;;;;;;5093571;28;1750;-65
2021/03/02 07:28:51;;;;;;;;;;;;;;;;;;5094873;28;931;-67
2021/03/02 07:31:17;;;;;;;;;;;;;;;;;;5094860;28;896;-66
2021/03/02 07:33:42;;;;;;;;;;;;;;;;;;5094865;28;856;-66
2021/03/02 07:36:08;;;;;;;;;;;;;;;;;;5094731;28;1309;-67
2021/03/02 07:38:33;;;;;;;;;;;;;;;;;;5094826;28;891;-68
2021/03/02 07:40:58;;;;;;;;;;;;;;;;;;5094717;28;1953;-67
2021/03/02 07:43:28;;;;;;;;;;;;;;;;;;5094311;28;844;-66
2021/03/02 07:45:53;;;;;;;;;;;;;;;;;;5094779;28;1294;-68
2021/03/02 07:48:25;;;;;;;;;;;;;;;;;;5094644;28;783;-67
2021/03/02 07:51:10;;;;;;;;;;;;;;;;;;5093414;28;813;-67
2021/03/02 07:53:35;;;;;;;;;;;;;;;;;;5094099;28;1974;-67
2021/03/02 07:56:14;;;;;;;;;;;;;;;;;;5093453;28;1425;-66
2021/03/02 07:58:39;;;;;;;;;;;;;;;;;;5093360;28;928;-66
2021/03/02 08:01:23;;;;;;;;;;;;;;;;;;5094516;28;1910;-68
2021/03/02 08:03:49;;;;;;;;;;;;;;;;;;5094418;28;879;-66
2021/03/02 08:06:29;;;;;;;;;;;;;;;;;;5094394;28;1403;-67
2021/03/02 08:08:54;;;;;;;;;;;;;;;;;;5094599;28;901;-66
2021/03/02 08:11:29;;;;;;;;;;;;;;;;;;5097289;28;879;-68
2021/03/02 08:13:54;;;;;;;;;;;;;;;;;;5097138;28;2336;-68
2021/03/02 08:16:40;;;;;;;;;;;;;;;;;;5097173;28;1412;-67
2021/03/02 08:19:25;;;;;;;;;;;;;;;;;;5096801;28;1802;-67
2021/03/02 08:21:50;;;;;;;;;;;;;;;;;;5096966;28;1897;-69
2021/03/02 08:24:15;;;;;;;;;;;;;;;;;;5098454;28;849;-66
2021/03/02 08:26:43;;;;;;;;;;;;;;;;;;5096985;28;1377;-68
2021/03/02 08:29:10;;;;;;;;;;;;;;;;;;5098309;28;896;-67
2021/03/02 08:31:37;;;;;;;;;;;;;;;;;;5096910;28;857;-66
2021/03/02 08:34:03;;;;;;;;;;;;;;;;;;5098211;28;904;-69
2021/03/02 08:36:29;;;;;;;;;;;;;;;;;;5096929;28;1349;-67
2021/03/02 08:38:54;;;;;;;;;;;;;;;;;;5098158;28;881;-68
2021/03/02 08:41:46;;;;;;;;;;;;;;;;;;5097858;28;1962;-68
2021/03/02 08:44:21;;;;;;;;;;;;;;;;;;5094707;28;1095;-67
2021/03/02 08:46:48;;;;;;;;;;;;;;;;;;5097890;28;1384;-68
2021/03/02 08:49:13;;;;;;;;;;;;;;;;;;5098043;28;968;-69
2021/03/02 08:51:39;;;;;;;;;;;;;;;;;;5096768;28;1068;-66
2021/03/02 08:54:05;;;;;;;;;;;;;;;;;;5097460;28;794;-66
2021/03/02 08:56:33;;;;;;;;;;;;;;;;;;5097653;28;1297;-67
2021/03/02 08:59:02;;;;;;;;;;;;;;;;;;5080064;28;845;-68
2021/03/02 09:01:33;;;;;;;;;;;;;;;;;;5096278;28;1889;-66
2021/03/02 09:04:18;;;;;;;;;;;;;;;;;;5097235;28;887;-67
2021/03/02 09:06:44;;;;;;;;;;;;;;;;;;5097717;28;1415;-67
2021/03/02 09:09:20;;;;;;;;;;;;;;;;;;5096507;28;1433;-66
2021/03/02 09:11:46;;;;;;;;;;;;;;;;;;5097639;28;854;-68
2021/03/02 09:14:13;;;;;;;;;;;;;;;;;;5097513;28;866;-67
2021/03/02 09:16:46;;;;;;;;;;;;;;;;;;5096248;28;1337;-68
2021/03/02 09:19:14;;;;;;;;;;;;;;;;;;5095972;28;813;-66
2021/03/02 09:21:42;;;;;;;;;;;;;;;;;;5094832;28;1981;-68
2021/03/02 09:24:11;;;;;;;;;;;;;;;;;;5096745;28;873;-68
2021/03/02 09:26:36;;;;;;;;;;;;;;;;;;5097033;28;1329;-68
2021/03/02 09:29:06;;;;;;;;;;;;;;;;;;5096173;28;920;-67
2021/03/02 09:31:32;;;;;;;;;;;;;;;;;;5097088;28;912;-68
2021/03/02 09:33:57;;;;;;;;;;;;;;;;;;5096847;28;893;-69
2021/03/02 09:36:24;;;;;;;;;;;;;;;;;;5096962;28;1297;-66
2021/03/02 09:38:50;;;;;;;;;;;;;;;;;;5097068;28;814;-69
2021/03/02 09:41:35;;;;;;;;;;;;;;;;;;5095566;28;1951;-68
2021/03/02 09:44:19;;;;;;;;;;;;;;;;;;5096696;28;740;-69
2021/03/02 09:46:44;;;;;;;;;;;;;;;;;;5095356;28;1415;-68
2021/03/02 09:49:09;;;;;;;;;;;;;;;;;;5095390;28;857;-67
2021/03/02 09:51:35;;;;;;;;;;;;;;;;;;5096709;28;880;-68
2021/03/02 09:54:14;;;;;;;;;;;;;;;;;;5095277;28;760;-68
2021/03/02 09:56:39;;;;;;;;;;;;;;;;;;5095160;28;1606;-67
2021/03/02 09:59:06;;;;;;;;;;;;;;;;;;5096900;28;996;-66
2021/03/02 10:01:32;;;;;;;;;;;;;;;;;;5096498;28;1954;-67
2021/03/02 10:04:04;;;;;;;;;;;;;;;;;;5096136;28;999;-69
2021/03/02 10:06:29;;;;;;;;;;;;;;;;;;5096315;28;1333;-68
2021/03/02 10:08:55;;;;;;;;;;;;;;;;;;5095023;28;2507;-69
2021/03/02 10:11:21;;;;;;;;;;;;;;;;;;5095041;28;1179;-68
2021/03/02 10:13:46;;;;;;;;;;;;;;;;;;5096346;28;896;-66
2021/03/02 10:16:22;;;;;;;;;;;;;;;;;;5096008;28;1433;-66
2021/03/02 10:18:48;;;;;;;;;;;;;;;;;;5077955;28;1187;-64
2021/03/02 10:21:14;;;;;;;;;;;;;;;;;;5094773;28;1965;-66
2021/03/02 10:23:40;;;;;;;;;;;;;;;;;;5095841;28;866;-66
2021/03/02 10:26:06;;;;;;;;;;;;;;;;;;5096333;28;1294;-65
2021/03/02 10:28:31;;;;;;;;;;;;;;;;;;5095740;28;952;-67
2021/03/02 10:30:57;;;;;;;;;;;;;;;;;;5096175;28;801;-64
2021/03/02 10:33:22;;;;;;;;;;;;;;;;;;5095444;28;852;-65
2021/03/02 10:35:47;;;;;;;;;;;;;;;;;;5094526;28;1376;-66
2021/03/02 10:38:13;;;;;;;;;;;;;;;;;;5094186;28;963;-65
2021/03/02 10:40:38;;;;;;;;;;;;;;;;;;5094395;28;947;-67
2021/03/02 10:43:03;;;;;;;;;;;;;;;;;;5095627;28;952;-66
2021/03/02 10:45:28;;;;;;;;;;;;;;;;;;5095659;28;1348;-64
2021/03/02 10:47:54;;;;;;;;;;;;;;;;;;5095669;28;951;-65
2021/03/02 10:50:19;;;;;;;;;;;;;;;;;;5094186;28;1897;-65
2021/03/02 10:52:44;;;;;;;;;;;;;;;;;;5095259;28;884;-66
2021/03/02 10:55:10;;;;;;;;;;;;;;;;;;5094136;28;1590;-66
2021/03/02 10:57:35;;;;;;;;;;;;;;;;;;5094218;28;1640;-68
2021/03/02 11:00:00;;;;;;;;;;;;;;;;;;5094170;28;1218;-68
2021/03/02 11:02:25;;;;;;;;;;;;;;;;;;5095113;28;864;-68
2021/03/02 11:04:51;;;;;;;;;;;;;;;;;;5095273;28;829;-67
2021/03/02 11:07:16;;;;;;;;;;;;;;;;;;5094215;28;1412;-67
2021/03/02 11:09:41;;;;;;;;;;;;;;;;;;5093948;28;983;-66
2021/03/02 11:12:07;;;;;;;;;;;;;;;;;;5094791;28;1918;-69
2021/03/02 11:14:32;;;;;;;;;;;;;;;;;;5094081;28;1316;-69
2021/03/02 11:16:57;;;;;;;;;;;;;;;;;;5095118;28;1322;-70
2021/03/02 11:19:22;;;;;;;;;;;;;;;;;;5093834;28;1163;-68
2021/03/02 11:21:48;;;;;;;;;;;;;;;;;;5095219;28;1052;-70
2021/03/02 11:24:14;;;;;;;;;;;;;;;;;;5093571;28;1618;-69
2021/03/02 11:26:39;;;;;;;;;;;;;;;;;;5093641;28;1452;-69
2021/03/02 11:29:04;;;;;;;;;;;;;;;;;;5094937;28;904;-70
2021/03/02 11:31:29;;;;;;;;;;;;;;;;;;5094858;28;1986;-70
2021/03/02 11:33:55;;;;;;;;;;;;;;;;;;5093338;28;2551;-68
2021/03/02 11:36:20;;;;;;;;;;;;;;;;;;5094702;28;1404;-70
2021/03/02 11:38:45;;;;;;;;;;;;;;;;;;5094742;28;1027;-68
2021/03/02 11:41:10;;;;;;;;;;;;;;;;;;5094959;28;1011;-68
2021/03/02 11:43:36;;;;;;;;;;;;;;;;;;5094743;28;829;-67
2021/03/02 11:46:02;;;;;;;;;;;;;;;;;;5093649;28;1357;-69
2021/03/02 11:48:27;;;;;;;;;;;;;;;;;;5094847;28;841;-68
2021/03/02 11:50:52;;;;;;;;;;;;;;;;;;5093350;28;1960;-68
2021/03/02 11:53:18;;;;;;;;;;;;;;;;;;5093367;28;1223;-67
2021/03/02 11:55:43;;;;;;;;;;;;;;;;;;5094507;28;1321;-68
2021/03/02 11:58:08;;;;;;;;;;;;;;;;;;5094573;28;892;-68
2021/03/02 12:00:33;;;;;;;;;;;;;;;;;;5094495;28;864;-68
2021/03/02 12:03:00;;;;;;;;;;;;;;;;;;5094398;28;872;-67
2021/03/02 12:05:25;;;;;;;;;;;;;;;;;;5094610;28;1281;-65
2021/03/02 12:07:50;;;;;;;;;;;;;;;;;;5094367;28;931;-65
2021/03/02 12:10:16;;;;;;;;;;;;;;;;;;5094627;28;1958;-66
2021/03/02 12:12:42;;;;;;;;;;;;;;;;;;5094236;28;1060;-66
2021/03/02 12:15:08;;;;;;;;;;;;;;;;;;5093142;28;1342;-64
2021/03/02 12:17:34;;;;;;;;;;;;;;;;;;5094262;28;1070;-65
2021/03/02 12:20:00;;;;;;;;;;;;;;;;;;5094511;28;916;-65
2021/03/02 12:22:25;;;;;;;;;;;;;;;;;;5092678;28;1433;-66
2021/03/02 12:24:50;;;;;;;;;;;;;;;;;;5094423;28;931;-66
2021/03/02 12:27:16;;;;;;;;;;;;;;;;;;5094286;28;1381;-65
2021/03/02 12:29:41;;;;;;;;;;;;;;;;;;5094418;28;829;-63
2021/03/02 12:32:07;;;;;;;;;;;;;;;;;;5093884;28;1901;-64
2021/03/02 12:34:32;;;;;;;;;;;;;;;;;;5092949;28;849;-63
2021/03/02 12:36:57;;;;;;;;;;;;;;;;;;5093108;28;1372;-64
2021/03/02 12:39:23;;;;;;;;;;;;;;;;;;5092881;28;1243;-64
2021/03/02 12:41:48;;;;;;;;;;;;;;;;;;5094131;28;867;-64
2021/03/02 12:44:13;;;;;;;;;;;;;;;;;;5093951;28;837;-64
2021/03/02 12:46:38;;;;;;;;;;;;;;;;;;5093976;28;1388;-65
2021/03/02 12:49:04;;;;;;;;;;;;;;;;;;5094061;28;809;-64
2021/03/02 12:51:29;;;;;;;;;;;;;;;;;;5094331;28;1959;-63
2021/03/02 12:53:54;;;;;;;;;;;;;;;;;;5093561;28;994;-65
2021/03/02 12:56:20;;;;;;;;;;;;;;;;;;5093706;28;1439;-64
2021/03/02 12:58:45;;;;;;;;;;;;;;;;;;5096464;28;825;-65
2021/03/02 13:01:11;;;;;;;;;;;;;;;;;;5097891;28;793;-63
2021/03/02 13:03:39;;;;;;;;;;;;;;;;;;5096299;28;924;-65
2021/03/02 13:06:05;;;;;;;;;;;;;;;;;;5096152;28;1344;-68
2021/03/02 13:08:31;;;;;;;;;;;;;;;;;;5097304;28;825;-69
2021/03/02 13:10:58;;;;;;;;;;;;;;;;;;5097734;28;1894;-66
2021/03/02 13:13:23;;;;;;;;;;;;;;;;;;5097347;28;826;-67
2021/03/02 13:15:49;;;;;;;;;;;;;;;;;;5109235;28;1605;-68
2021/03/02 13:18:14;;;;;;;;;;;;;;;;;;5110998;28;1783;-68
2021/03/02 13:20:39;;;;;;;;;;;;;;;;;;5099202;28;853;-68
2021/03/02 13:23:05;;;;;;;;;;;;;;;;;;5099329;28;963;-67
2021/03/02 13:25:30;;;;;;;;;;;;;;;;;;5099570;28;1412;-64
2021/03/02 13:27:57;;;;;;;;;;;;;;;;;;5117788;28;859;-63
2021/03/02 13:30:24;;;;;;;;;;;;;;;;;;5099211;28;1965;-64
2021/03/02 13:32:49;;;;;;;;;;;;;;;;;;5117086;28;805;-65
2021/03/02 13:35:15;;;;;;;;;;;;;;;;;;5117320;28;1412;-63
2021/03/02 13:37:41;;;;;;;;;;;;;;;;;;5117475;28;1440;-65
2021/03/02 13:40:07;;;;;;;;;;;;;;;;;;5099422;28;860;-64
2021/03/02 13:42:38;;;;;;;;;;;;;;;;;;5117064;28;848;-65
2021/03/02 13:45:04;;;;;;;;;;;;;;;;;;5117193;28;1356;-63
2021/03/02 13:47:29;;;;;;;;;;;;;;;;;;5117131;28;1255;-63
2021/03/02 13:49:54;;;;;;;;;;;;;;;;;;5117117;28;951;-63
2021/03/02 13:52:20;;;;;;;;;;;;;;;;;;5116894;28;1889;-64
2021/03/02 13:54:45;;;;;;;;;;;;;;;;;;5117038;28;885;-63
2021/03/02 13:57:11;;;;;;;;;;;;;;;;;;5116672;28;1392;-64
2021/03/02 13:59:36;;;;;;;;;;;;;;;;;;5116944;28;863;-65
2021/03/02 14:02:02;;;;;;;;;;;;;;;;;;5116665;28;801;-63
2021/03/02 14:04:31;;;;;;;;;;;;;;;;;;5116994;28;864;-64
2021/03/02 14:06:56;;;;;;;;;;;;;;;;;;5116680;28;1391;-63
2021/03/02 14:09:22;;;;;;;;;;;;;;;;;;5116233;28;845;-63
2021/03/02 14:11:47;;;;;;;;;;;;;;;;;;5116535;28;1968;-66
2021/03/02 14:14:13;;;;;;;;;;;;;;;;;;5116664;28;868;-65
2021/03/02 14:16:39;;;;;;;;;;;;;;;;;;5116488;28;1321;-65
2021/03/02 14:19:04;;;;;;;;;;;;;;;;;;5098189;28;1234;-65
2021/03/02 14:21:33;;;;;;;;;;;;;;;;;;5116474;28;896;-66
2021/03/02 14:24:06;;;;;;;;;;;;;;;;;;5098194;28;940;-64
2021/03/02 14:26:32;;;;;;;;;;;;;;;;;;5098442;28;1397;-65
2021/03/02 14:28:58;;;;;;;;;;;;;;;;;;5116618;28;889;-64
2021/03/02 14:31:24;;;;;;;;;;;;;;;;;;5116373;28;1968;-64
2021/03/02 14:33:50;;;;;;;;;;;;;;;;;;5097732;28;1246;-65
2021/03/02 14:36:15;;;;;;;;;;;;;;;;;;5116211;28;1337;-64
2021/03/02 14:38:40;;;;;;;;;;;;;;;;;;5097818;28;833;-64
2021/03/02 14:41:06;;;;;;;;;;;;;;;;;;5116182;28;900;-65
2021/03/02 14:43:36;;;;;;;;;;;;;;;;;;5115991;28;805;-64
2021/03/02 14:46:02;;;;;;;;;;;;;;;;;;5097647;28;1377;-65
2021/03/02 14:48:30;;;;;;;;;;;;;;;;;;5097433;28;916;-65
2021/03/02 14:50:57;;;;;;;;;;;;;;;;;;5115950;28;1968;-64
2021/03/02 14:53:25;;;;;;;;;;;;;;;;;;5115747;28;971;-67
2021/03/02 14:55:52;;;;;;;;;;;;;;;;;;5115858;28;1372;-67
2021/03/02 14:58:18;;;;;;;;;;;;;;;;;;5115820;28;853;-67
2021/03/02 15:00:44;;;;;;;;;;;;;;;;;;5097212;28;1454;-67
2021/03/02 15:03:09;;;;;;;;;;;;;;;;;;5096488;28;1160;-64
2021/03/02 15:05:35;;;;;;;;;;;;;;;;;;5114483;28;1341;-64
2021/03/02 15:08:02;;;;;;;;;;;;;;;;;;5097144;28;1220;-63
2021/03/02 15:10:27;;;;;;;;;;;;;;;;;;5114846;28;1902;-65
2021/03/02 15:12:52;;;;;;;;;;;;;;;;;;5096976;28;1737;-65
2021/03/02 15:15:18;;;;;;;;;;;;;;;;;;5114567;28;1317;-64
2021/03/02 15:17:43;;;;;;;;;;;;;;;;;;5123385;27;1363;-65
2021/03/02 15:20:10;;;;;;;;;;;;;;;;;;5126448;27;1146;-66
2021/03/02 15:22:36;;;;;;;;;;;;;;;;;;5127006;27;1432;-66
2021/03/02 15:25:02;;;;;;;;;;;;;;;;;;5133509;27;1214;-66
2021/03/02 15:27:27;;;;;;;;;;;;;;;;;;5099894;27;1408;-64
2021/03/02 15:29:54;;;;;;;;;;;;;;;;;;5135373;27;1267;-65
2021/03/02 15:32:19;;;;;;;;;;;;;;;;;;5104223;28;1905;-66
2021/03/02 15:34:45;;;;;;;;;;;;;;;;;;5097077;28;939;-63
2021/03/02 15:37:11;;;;;;;;;;;;;;;;;;5108993;28;1416;-65
2021/03/02 15:39:43;;;;;;;;;;;;;;;;;;5130227;27;816;-65
2021/03/02 15:42:09;;;;;;;;;;;;;;;;;;5135390;27;925;-66
2021/03/02 15:44:34;;;;;;;;;;;;;;;;;;5135306;27;886;-66
2021/03/02 15:47:02;;;;;;;;;;;;;;;;;;5134825;27;1380;-66
2021/03/02 15:49:28;;;;;;;;;;;;;;;;;;5135079;27;941;-65
2021/03/02 15:51:53;;;;;;;;;;;;;;;;;;5135304;27;1889;-65
2021/03/02 15:54:19;;;;;;;;;;;;;;;;;;5134849;28;904;-64
2021/03/02 15:56:44;;;;;;;;;;;;;;;;;;5135365;28;1442;-68
2021/03/02 15:59:09;;;;;;;;;;;;;;;;;;5135236;28;837;-66
2021/03/02 16:01:42;;;;;;;;;;;;;;;;;;5135369;28;901;-68
2021/03/02 16:04:07;;;;;;;;;;;;;;;;;;5134950;28;824;-68
2021/03/02 16:06:37;;;;;;;;;;;;;;;;;;5135445;28;1387;-69
2021/03/02 16:09:03;;;;;;;;;;;;;;;;;;5135482;28;900;-65
2021/03/02 16:11:31;;;;;;;;;;;;;;;;;;5135260;28;1894;-66
2021/03/02 16:13:57;;;;;;;;;;;;;;;;;;5116706;28;924;-68
2021/03/02 16:16:23;;;;;;;;;;;;;;;;;;5135209;27;1297;-65
2021/03/02 16:18:50;;;;;;;;;;;;;;;;;;5135375;28;960;-68
2021/03/02 16:21:18;;;;;;;;;;;;;;;;;;5135296;28;958;-66
2021/03/02 16:23:44;;;;;;;;;;;;;;;;;;5135297;28;871;-67
2021/03/02 16:26:10;;;;;;;;;;;;;;;;;;5135112;28;1305;-66
2021/03/02 16:28:36;;;;;;;;;;;;;;;;;;5134932;28;836;-68
2021/03/02 16:31:01;;;;;;;;;;;;;;;;;;5134857;27;1893;-68
2021/03/02 16:33:28;;;;;;;;;;;;;;;;;;5139339;27;881;-68
2021/03/02 16:35:54;;;;;;;;;;;;;;;;;;5139041;27;1301;-66
2021/03/02 16:38:20;;;;;;;;;;;;;;;;;;5138799;27;816;-67
2021/03/02 16:40:45;;;;;;;;;;;;;;;;;;5138951;27;988;-68
2021/03/02 16:43:11;;;;;;;;;;;;;;;;;;5139345;27;880;-67
2021/03/02 16:45:37;;;;;;;;;;;;;;;;;;5120487;27;1368;-66
2021/03/02 16:48:02;;;;;;;;;;;;;;;;;;5109282;28;1933;-69
2021/03/02 16:50:32;;;;;;;;;;;;;;;;;;5107266;28;1956;-69
2021/03/02 16:52:59;;;;;;;;;;;;;;;;;;5108137;28;1405;-67
2021/03/02 16:55:43;;;;;;;;;;;;;;;;;;5097508;28;1329;-66
2021/03/02 16:58:08;;;;;;;;;;;;;;;;;;5079680;28;1110;-66
2021/03/02 17:00:54;;;;;;;;;;;;;;;;;;5079577;28;1412;-67
2021/03/02 17:03:23;;;;;;;;;;;;;;;;;;5072694;28;1888;-68
2021/03/02 17:05:50;;;;;;;;;;;;;;;;;;5097663;28;1443;-67
2021/03/02 17:08:17;;;;;;;;;;;;;;;;;;5062518;28;873;-68